Latest Weather Observations for Marree Airport

IDS60801

Issued at 3:51 pm CST Tuesday 20 April 2021 (issued every 10 minutes, with the page automatically refreshed every 10 minutes)

About weather observations | Map of weather stations | Latest weather observations for SA | Other Formats
Station Details ID: 017126 Name: MARREE AERO Lat: -29.66 Lon: 138.07 Height: 50.0 m
Data from the previous 72 hours. | See also: Recent months at Marree Airport
Date/Time
CST
Temp
°C
App
Temp
°C
Dew
Point
°C
Rel
Hum
%
Delta-T
°C
Wind Press
QNH
hPa
Press
MSL
hPa
Rain since
9am
mm
Dir  Spd
km/h
Gust
km/h
Spd
kts
Gust
kts
20/03:30pm 26.8 21.1 0.5 18 12.4 W 20 32 11 17 1015.3 1015.1 0.0
20/03:00pm 26.9 20.4 0.6 18 12.4 W 24 33 13 18 1015.4 1015.2 0.0
20/02:30pm 26.8 20.0 0.5 18 12.4 W 26 33 14 18 1015.5 1015.3 0.0
20/02:00pm 26.3 20.5 0.1 18 12.2 WSW 20 32 11 17 1015.7 1015.5 0.0
20/01:30pm 26.0 20.5 0.6 19 11.9 WSW 19 32 10 17 1016.1 1015.9 0.0
20/01:00pm 25.3 21.0 0.8 20 11.5 W 13 28 7 15 1016.5 1016.3 0.0
20/12:30pm 25.5 21.9 0.9 20 11.6 W 9 24 5 13 1017.0 1016.8 0.0
20/12:00pm 25.3 21.0 0.8 20 11.5 NW 13 20 7 11 1017.5 1017.3 0.0
20/11:30am 23.8 20.2 0.8 22 10.6 WNW 9 17 5 9 1018.1 1017.9 0.0
20/11:00am 22.9 20.4 1.3 24 10.0 ENE 4 7 2 4 1018.5 1018.3 0.0
20/10:30am 21.9 19.0 1.6 26 9.4 WSW 6 9 3 5 1018.7 1018.5 0.0
20/10:00am 20.1 17.1 1.0 28 8.6 SSW 6 9 3 5 1018.9 1018.7 0.0
20/09:30am 19.4 17.6 1.4 30 8.1 CALM 0 6 0 3 1019.0 1018.8 0.0
20/09:00am 16.4 13.4 0.9 35 6.8 ESE 6 7 3 4 1018.9 1018.7 0.0
20/08:30am 14.3 11.7 0.9 40 5.7 ESE 4 6 2 3 1018.7 1018.5 0.0
20/08:00am 12.7 9.5 0.5 43 5.1 E 7 9 4 5 1018.4 1018.2 0.0
20/07:30am 10.4 8.4 -0.4 47 4.3 CALM 0 0 0 0 1018.1 1017.9 0.0
20/07:00am 8.2 6.0 -1.9 49 3.8 CALM 0 0 0 0 1017.8 1017.6 0.0
20/06:30am 7.9 4.5 -1.9 50 3.7 SSW 6 7 3 4 1017.4 1017.2 0.0
20/06:00am 8.1 5.9 -1.7 50 3.7 CALM 0 0 0 0 1016.9 1016.7 0.0
20/05:30am 8.1 4.6 -1.1 52 3.5 S 7 13 4 7 1016.7 1016.5 0.0
20/05:00am 8.8 4.2 -1.3 49 3.9 S 13 13 7 7 1016.8 1016.6 0.0
20/04:30am 9.4 4.4 -1.0 48 4.1 SSE 15 17 8 9 1016.4 1016.2 0.0
20/04:00am 9.2 4.5 -1.5 47 4.1 SSE 13 13 7 7 1016.4 1016.2 0.0
20/03:30am 9.5 6.0 -1.5 46 4.2 SSE 7 9 4 5 1016.4 1016.2 0.0
20/03:00am 10.1 6.6 -1.6 44 4.5 SSE 7 9 4 5 1016.5 1016.3 0.0
20/02:30am 9.9 6.3 -2.1 43 4.6 S 7 9 4 5 1016.8 1016.6 0.0
20/02:00am 11.3 9.1 -1.5 41 5.0 CALM 0 0 0 0 1016.9 1016.7 0.0
20/01:30am 11.1 8.6 -1.3 42 4.9 SE 2 6 1 3 1017.0 1016.8 0.0
20/01:00am 11.3 9.1 -1.5 41 5.0 CALM 0 0 0 0 1017.2 1017.0 0.0
20/12:30am 12.5 9.9 -1.4 38 5.5 S 2 7 1 4 1017.4 1017.2 0.0
20/12:00am 12.8 10.7 -1.1 38 5.6 CALM 0 0 0 0 1017.4 1017.2 0.0
 
Date/Time
CST
Temp
°C
App
Temp
°C
Dew
Point
°C
Rel
Hum
%
Delta-T
°C
Wind Press
QNH
hPa
Press
MSL
hPa
Rain since
9am
mm
Dir  Spd
km/h
Gust
km/h
Spd
kts
Gust
kts
19/11:30pm 12.6 9.7 -1.3 38 5.6 S 4 6 2 3 1017.4 1017.2 0.0
19/11:00pm 13.0 8.7 -1.3 37 5.8 WSW 11 13 6 7 1017.5 1017.3 0.0
19/10:30pm 13.3 8.7 -1.1 37 5.8 WSW 13 15 7 8 1017.7 1017.5 0.0
19/10:00pm 14.0 8.6 -1.2 35 6.2 WSW 17 17 9 9 1017.7 1017.5 0.0
19/09:30pm 15.1 9.8 -0.6 34 6.5 WSW 17 19 9 10 1017.8 1017.6 0.0
19/09:00pm 15.0 10.4 -0.7 34 6.5 W 13 15 7 8 1017.5 1017.3 0.0
19/08:30pm 16.7 11.8 -0.5 31 7.3 NW 15 15 8 8 1017.5 1017.3 0.0
19/08:00pm 18.0 14.3 -0.3 29 7.9 NW 9 13 5 7 1017.3 1017.1 0.0
19/07:30pm 19.7 17.7 -0.3 26 8.8 CALM 0 0 0 0 1017.0 1016.8 0.0
19/07:00pm 20.5 18.5 -0.2 25 9.2 CALM 0 0 0 0 1016.9 1016.7 0.0
19/06:30pm 21.4 19.0 0.0 24 9.6 NW 2 6 1 3 1016.8 1016.6 0.0
19/06:00pm 22.1 19.4 0.0 23 9.9 NW 4 6 2 3 1016.6 1016.4 0.0
19/05:30pm 23.7 20.4 0.1 21 10.8 WNW 7 11 4 6 1016.6 1016.4 0.0
19/05:00pm 23.8 20.7 0.2 21 10.8 W 6 9 3 5 1016.5 1016.3 0.0
19/04:30pm 24.2 21.2 0.5 21 10.9 WNW 6 11 3 6 1016.5 1016.3 0.0
19/04:00pm 24.3 21.2 -0.1 20 11.2 N 6 11 3 6 1016.7 1016.5 0.0
19/03:30pm 24.1 20.8 0.4 21 10.9 N 7 15 4 8 1016.8 1016.6 0.0
19/03:00pm 24.3 20.8 1.2 22 10.8 NW 9 13 5 7 1016.8 1016.6 0.0
19/02:30pm 24.0 20.5 1.0 22 10.7 N 9 17 5 9 1017.1 1016.9 0.0
19/02:00pm 24.0 20.9 1.6 23 10.6 NNE 7 17 4 9 1017.3 1017.1 0.0
19/01:30pm 23.4 20.4 2.3 25 10.0 WSW 7 17 4 9 1017.8 1017.6 0.0
19/01:00pm 22.9 19.5 1.9 25 9.9 N 9 15 5 8 1018.4 1018.2 0.0
19/12:30pm 23.3 20.6 2.7 26 9.8 ENE 6 13 3 7 1019.1 1018.9 0.0
19/12:00pm 22.8 19.9 2.8 27 9.5 NE 7 15 4 8 1019.6 1019.4 0.0
19/11:30am 22.8 20.0 3.4 28 9.3 NNE 7 20 4 11 1020.2 1020.0 0.0
19/11:00am 21.9 19.3 3.1 29 9.0 NNE 6 15 3 8 1020.6 1020.4 0.0
19/10:30am 21.4 17.2 4.0 32 8.4 NE 15 20 8 11 1021.1 1020.9 0.0
19/10:00am 20.1 15.9 3.8 34 7.8 ENE 15 20 8 11 1021.4 1021.2 0.0
19/09:30am 18.8 15.5 2.6 34 7.5 E 9 15 5 8 1021.6 1021.4 0.0
19/09:00am 16.1 12.2 1.0 36 6.6 SE 11 15 6 8 1021.8 1021.6 0.0
19/08:30am 13.8 9.2 1.5 43 5.3 SE 15 17 8 9 1021.6 1021.4 0.0
19/08:00am 11.2 6.7 0.0 46 4.6 SSE 13 17 7 9 1021.6 1021.4 0.0
19/07:30am 9.5 5.4 -0.1 51 3.8 SSE 11 15 6 8 1021.3 1021.1 0.0
19/07:00am 7.5 4.0 -1.4 53 3.4 SE 7 11 4 6 1021.0 1020.8 0.0
19/06:30am 7.1 2.8 -1.6 54 3.3 SSE 11 13 6 7 1020.9 1020.7 0.0
19/06:00am 7.5 3.6 -1.4 53 3.4 SSE 9 11 5 6 1020.8 1020.6 0.0
19/05:30am 7.8 3.9 -1.4 52 3.5 SE 9 11 5 6 1020.5 1020.3 0.0
19/05:00am 8.1 5.1 -2.0 49 3.8 SE 4 7 2 4 1020.4 1020.2 0.0
19/04:30am 9.5 5.0 -0.4 50 3.9 S 13 15 7 8 1020.4 1020.2 0.0
19/04:00am 10.1 5.5 -0.7 47 4.3 SSW 13 15 7 8 1020.4 1020.2 0.0
19/03:30am 10.5 6.4 -0.3 47 4.3 S 11 11 6 6 1020.5 1020.3 0.0
19/03:00am 10.1 6.3 -0.7 47 4.3 S 9 11 5 6 1020.9 1020.7 0.0
19/02:30am 10.4 6.6 -0.7 46 4.4 SSW 9 9 5 5 1021.1 1020.9 0.0
19/02:00am 12.5 10.4 -0.7 40 5.4 CALM 0 0 0 0 1021.3 1021.1 0.0
19/01:30am 12.0 9.6 -0.5 42 5.1 NNE 2 6 1 3 1021.5 1021.3 0.0
19/01:00am 12.2 8.5 -0.3 42 5.1 NNE 9 9 5 5 1021.5 1021.3 0.0
19/12:30am 13.5 9.7 -0.5 38 5.7 ESE 9 13 5 7 1021.5 1021.3 0.0
19/12:00am 12.2 9.0 -0.3 42 5.1 ENE 6 9 3 5 1021.6 1021.4 0.0
 
Date/Time
CST
Temp
°C
App
Temp
°C
Dew
Point
°C
Rel
Hum
%
Delta-T
°C
Wind Press
QNH
hPa
Press
MSL
hPa
Rain since
9am
mm
Dir  Spd
km/h
Gust
km/h
Spd
kts
Gust
kts
18/11:30pm 11.8 7.2 -1.0 41 5.1 SSE 13 15 7 8 1021.6 1021.4 0.0
18/11:00pm 12.9 8.7 -0.7 39 5.6 SSE 11 13 6 7 1021.8 1021.6 0.0
18/10:30pm 14.2 11.0 0.5 39 5.8 S 7 9 4 5 1022.3 1022.1 0.0
18/10:00pm 14.6 11.4 0.8 39 5.9 SSW 7 9 4 5 1022.5 1022.4 0.0
18/09:30pm 15.4 11.4 0.4 36 6.4 SSW 11 13 6 7 1022.6 1022.5 0.0
18/09:00pm 16.4 12.1 0.9 35 6.7 SSW 13 15 7 8 1022.7 1022.6 0.0
18/08:30pm 17.0 12.0 1.4 35 6.9 SSW 17 17 9 9 1022.7 1022.6 0.0
18/08:00pm 18.0 13.4 1.5 33 7.4 SSW 15 17 8 9 1022.6 1022.5 0.0
18/07:30pm 18.9 13.5 1.0 30 8.0 SSW 19 20 10 11 1022.7 1022.6 0.0
18/07:00pm 19.9 14.3 0.9 28 8.6 SSW 20 22 11 12 1022.6 1022.5 0.0
18/06:30pm 20.8 14.8 1.1 27 8.9 SSW 22 28 12 15 1022.3 1022.1 0.0
18/06:00pm 21.8 15.1 1.5 26 9.4 S 26 33 14 18 1021.9 1021.7 0.0
18/05:30pm 23.0 17.5 0.8 23 10.2 SSW 19 24 10 13 1021.6 1021.4 0.0
18/05:00pm 23.7 18.2 0.7 22 10.6 SSW 19 26 10 14 1021.6 1021.4 0.0
18/04:30pm 24.0 19.6 0.4 21 10.8 S 13 22 7 12 1021.4 1021.2 0.0
18/04:00pm 23.7 20.0 0.1 21 10.8 S 9 17 5 9 1021.6 1021.4 0.0
18/03:30pm 24.2 19.0 -0.2 20 11.1 S 17 24 9 13 1021.8 1021.6 0.0
18/03:00pm 24.2 19.6 1.8 23 10.6 SSE 15 24 8 13 1021.9 1021.7 0.0
18/02:30pm 23.9 20.1 1.5 23 10.5 SSE 11 20 6 11 1022.2 1022.0 0.0
18/02:00pm 23.0 18.8 1.4 24 10.1 SSE 13 20 7 11 1022.7 1022.6 0.0
18/01:30pm 22.8 19.0 1.8 25 9.8 SSE 11 17 6 9 1023.0 1022.9 0.0
18/01:00pm 22.3 17.8 1.9 26 9.5 SW 15 22 8 12 1023.7 1023.6 0.0
18/12:30pm 22.6 18.6 2.7 27 9.4 SSE 13 30 7 16 1024.1 1024.0 0.0
18/12:00pm 21.8 17.7 2.0 27 9.2 SE 13 20 7 11 1024.8 1024.7 0.0
18/11:30am 21.3 17.3 2.6 29 8.8 ESE 13 24 7 13 1025.4 1025.3 0.0
18/11:00am 20.9 16.5 2.7 30 8.6 E 15 28 8 15 1025.7 1025.6 0.0
18/10:30am 20.3 15.4 2.2 30 8.3 ESE 17 28 9 15 1025.8 1025.7 0.0
18/10:00am 19.7 14.8 2.1 31 8.1 ESE 17 24 9 13 1026.1 1026.0 0.0
18/09:30am 18.9 14.4 2.3 33 7.6 SE 15 19 8 10 1026.4 1026.3 0.0
18/09:00am 17.7 13.3 2.5 36 6.9 SE 15 17 8 9 1026.4 1026.3 0.0
18/08:30am 15.3 11.3 2.8 43 5.6 SSE 13 17 7 9 1026.2 1026.1 0.0
18/08:00am 13.0 9.4 2.8 50 4.5 SSE 11 15 6 8 1026.0 1025.9 0.0
18/07:30am 10.9 8.0 2.7 57 3.5 SSE 7 13 4 7 1025.9 1025.8 0.0
18/07:00am 9.1 5.0 2.4 63 2.8 SSE 13 15 7 8 1025.5 1025.4 0.0
18/06:30am 8.8 5.5 2.2 63 2.7 SE 9 11 5 6 1025.4 1025.3 0.0
18/06:00am 10.0 5.6 2.8 61 3.1 SSE 15 17 8 9 1025.4 1025.3 0.0
18/05:30am 10.3 6.0 3.1 61 3.1 SSE 15 19 8 10 1025.2 1025.1 0.0
18/05:00am 11.3 7.2 4.3 62 3.1 SSE 15 20 8 11 1024.9 1024.8 0.0
18/04:30am 11.1 7.3 4.1 62 3.1 SSE 13 17 7 9 1024.9 1024.8 0.0
18/04:00am 10.9 6.8 4.1 63 3.0 SSE 15 19 8 10 1024.7 1024.6 0.0
18/03:30am 11.1 6.6 4.1 62 3.1 SSE 17 17 9 9 1024.7 1024.6 0.0
18/03:00am 11.4 7.2 3.9 60 3.3 S 15 17 8 9 1024.9 1024.8 0.0
18/02:30am 11.6 7.0 3.9 59 3.4 SE 17 17 9 9 1025.0 1024.9 0.0
18/02:00am 12.5 8.7 4.0 56 3.8 SSE 13 17 7 9 1025.1 1025.0 0.0
18/01:30am 13.3 10.4 4.5 55 4.0 SSW 9 11 5 6 1025.3 1025.2 0.0
18/01:00am 13.5 9.7 4.1 53 4.3 S 13 13 7 7 1025.3 1025.2 0.0
18/12:30am 14.3 10.2 4.3 51 4.6 S 15 17 8 9 1025.4 1025.3 0.0
18/12:00am 14.9 10.8 4.3 49 4.9 S 15 17 8 9 1025.4 1025.3 0.0
 
Date/Time
CST
Temp
°C
App
Temp
°C
Dew
Point
°C
Rel
Hum
%
Delta-T
°C
Wind Press
QNH
hPa
Press
MSL
hPa
Rain since
9am
mm
Dir  Spd
km/h
Gust
km/h
Spd
kts
Gust
kts
17/11:30pm 15.7 11.2 4.4 47 5.3 S 17 22 9 12 1025.5 1025.4 0.0
17/11:00pm 16.5 11.5 4.5 45 5.7 S 20 24 11 13 1025.6 1025.5 0.0
17/10:30pm 16.6 11.7 4.3 44 5.7 S 19 20 10 11 1025.8 1025.7 0.0
17/10:00pm 17.2 12.3 4.2 42 6.1 S 19 22 10 12 1025.9 1025.8 0.0
17/09:30pm 17.4 13.2 3.7 40 6.4 S 15 17 8 9 1025.7 1025.6 0.0
17/09:00pm 17.7 13.3 2.8 37 6.8 S 15 17 8 9 1025.6 1025.5 0.0
17/08:30pm 18.1 13.6 2.0 34 7.3 S 15 17 8 9 1025.6 1025.5 0.0
17/08:00pm 18.8 14.7 2.2 33 7.6 SSW 13 17 7 9 1025.5 1025.4 0.0
17/07:30pm 19.7 14.9 2.6 32 7.9 SSW 17 19 9 10 1025.2 1025.1 0.0
17/07:00pm 20.5 15.2 2.8 31 8.3 SSW 20 24 11 13 1025.0 1024.9 0.0
17/06:30pm 21.2 16.0 3.4 31 8.5 SSW 20 26 11 14 1024.9 1024.8 0.0
17/06:00pm 22.1 15.3 3.3 29 9.0 SSW 28 33 15 18 1024.7 1024.6 0.0
17/05:30pm 23.1 16.4 3.6 28 9.4 SSW 28 35 15 19 1024.3 1024.2 0.0
17/05:00pm 24.0 18.0 3.3 26 10.1 S 24 33 13 18 1024.1 1024.0 0.0
17/04:30pm 24.8 19.4 2.3 23 10.8 S 20 30 11 16 1023.9 1023.8 0.0
17/04:00pm 25.0 19.3 3.0 24 10.7 SSW 22 30 12 16 1023.7 1023.6 0.0

Other formats

Comma delimited format used in spreadsheet applications
http://www.bom.gov.au/fwo/IDS60801/IDS60801.95480.axf

JavaScript Object Notation format (JSON) in row-major order
http://www.bom.gov.au/fwo/IDS60801/IDS60801.95480.json

Data quality

Most of these data are generated automatically and are frequently updated. Quality checks on data are not normally performed. It is possible for incorrect values to appear. Refer to information at About Latest Weather Observations and please check the disclaimer before using these data.